createdAt,value
2023-05-14T00:00:16.809Z,0.47
2023-05-14T00:01:40.239Z,0.40
2023-05-14T00:02:42.283Z,0.40
2023-05-14T00:03:44.826Z,0.75
2023-05-14T00:04:46.932Z,0.50
2023-05-14T00:05:48.794Z,0.30
2023-05-14T00:06:51.081Z,0.40
2023-05-14T00:07:53.410Z,0.45
2023-05-14T00:08:55.305Z,0.30
2023-05-14T00:09:58.186Z,0.43
2023-05-14T00:12:02.528Z,0.40
2023-05-14T00:13:04.563Z,0.30
2023-05-14T00:14:06.553Z,0.47
2023-05-14T00:15:08.932Z,0.60
2023-05-14T00:16:11.924Z,0.40
2023-05-14T00:17:14.088Z,0.40
2023-05-14T00:18:16.123Z,0.63
2023-05-14T00:19:18.272Z,0.38
2023-05-14T00:20:21.008Z,0.40
2023-05-14T00:21:23.170Z,0.60
2023-05-14T00:22:25.194Z,0.50
2023-05-14T00:23:27.169Z,0.85
2023-05-14T00:24:29.449Z,0.50
2023-05-14T00:25:31.317Z,0.35
2023-05-14T00:26:33.197Z,0.47
2023-05-14T00:27:35.731Z,0.90
2023-05-14T00:29:39.694Z,0.40
2023-05-14T00:30:41.799Z,0.80
2023-05-14T00:31:44.115Z,0.55
2023-05-14T00:32:46.521Z,0.90
2023-05-14T00:33:48.491Z,0.90
2023-05-14T00:34:50.477Z,0.60
2023-05-14T00:35:52.387Z,0.80
2023-05-14T00:36:54.691Z,0.50
2023-05-14T00:37:56.673Z,0.93
2023-05-14T00:38:58.650Z,0.60
2023-05-14T00:40:00.591Z,0.65
2023-05-14T00:41:03.036Z,0.73
2023-05-14T00:42:05.084Z,0.60
2023-05-14T00:43:07.031Z,0.68
2023-05-14T00:44:09.159Z,0.63
2023-05-14T00:45:11.714Z,0.60
2023-05-14T00:46:14.744Z,1.17
2023-05-14T00:47:16.816Z,0.70
2023-05-14T00:48:19.670Z,0.80
2023-05-14T00:49:22.155Z,0.70
2023-05-14T00:50:24.354Z,0.55
2023-05-14T00:51:26.853Z,0.63
2023-05-14T00:52:28.897Z,0.63
2023-05-14T00:53:31.258Z,0.50
2023-05-14T00:54:33.276Z,0.60
2023-05-14T00:55:35.252Z,0.68
2023-05-14T00:56:37.242Z,0.63
2023-05-14T00:57:39.664Z,0.60
2023-05-14T00:58:41.801Z,0.70
2023-05-14T00:59:43.975Z,0.50
2023-05-14T01:00:46.060Z,0.60
2023-05-14T01:01:48.286Z,0.65
2023-05-14T01:02:50.276Z,0.65
2023-05-14T01:03:54.369Z,0.60
2023-05-14T01:04:56.410Z,0.73
2023-05-14T01:06:13.884Z,0.68
2023-05-14T01:07:24.622Z,0.80
2023-05-14T01:08:32.366Z,0.60
2023-05-14T01:09:47.680Z,0.68
2023-05-14T01:10:57.840Z,0.70
2023-05-14T01:12:13.763Z,0.80
2023-05-14T01:13:39.001Z,0.47
2023-05-14T01:14:50.872Z,0.50
2023-05-14T01:15:57.928Z,0.63
2023-05-14T01:17:02.775Z,0.68
2023-05-14T01:18:08.257Z,0.45
2023-05-14T01:19:21.916Z,0.55
2023-05-14T01:20:24.365Z,0.80
2023-05-14T01:21:52.520Z,0.47
2023-05-14T01:22:54.463Z,0.40
2023-05-14T01:23:56.704Z,0.80
2023-05-14T01:24:58.670Z,0.40
2023-05-14T01:26:00.561Z,0.40
2023-05-14T01:27:34.810Z,0.85
2023-05-14T01:28:38.023Z,0.50
2023-05-14T01:31:01.912Z,0.50
2023-05-14T01:32:07.892Z,0.73
2023-05-14T01:33:15.970Z,0.70
2023-05-14T01:34:22.891Z,0.50
2023-05-14T01:35:27.689Z,0.60
2023-05-14T01:36:30.209Z,0.50
2023-05-14T01:38:36.662Z,0.47
2023-05-14T01:39:39.317Z,0.40
2023-05-14T01:40:42.113Z,0.40
2023-05-14T01:41:45.315Z,0.52
2023-05-14T01:42:47.569Z,0.50
2023-05-14T01:43:49.746Z,0.52
2023-05-14T01:44:51.835Z,0.50
2023-05-14T01:45:55.800Z,0.60
2023-05-14T01:46:57.810Z,0.50
2023-05-14T01:47:59.802Z,0.73
2023-05-14T01:49:01.761Z,0.50
2023-05-14T01:50:04.148Z,0.63
2023-05-14T01:51:06.105Z,0.57
2023-05-14T01:52:08.738Z,0.60
2023-05-14T01:53:10.712Z,0.40
2023-05-14T01:54:12.968Z,0.35
2023-05-14T01:55:16.003Z,0.55
2023-05-14T01:56:21.972Z,0.93
2023-05-14T01:57:23.864Z,0.40
2023-05-14T01:58:26.054Z,0.60
2023-05-14T01:59:30.079Z,0.52
2023-05-14T02:00:32.069Z,0.45
2023-05-14T02:01:34.232Z,0.40
2023-05-14T02:02:36.624Z,0.50
2023-05-14T02:03:38.649Z,0.43
2023-05-14T02:04:41.070Z,0.60
2023-05-14T02:05:42.953Z,0.40
2023-05-14T02:06:45.218Z,0.43
2023-05-14T02:07:47.194Z,0.70
2023-05-14T02:08:49.156Z,0.80
2023-05-14T02:09:51.074Z,0.55
2023-05-14T02:10:53.393Z,0.50
2023-05-14T02:11:55.346Z,0.80
2023-05-14T02:12:57.258Z,0.60
2023-05-14T02:13:59.193Z,0.40
2023-05-14T02:15:01.559Z,0.90
2023-05-14T02:16:06.525Z,1.00
2023-05-14T02:17:09.068Z,0.50
2023-05-14T02:18:11.095Z,0.40
2023-05-14T02:19:13.537Z,1.05
2023-05-14T02:20:15.858Z,1.08
2023-05-14T02:21:17.845Z,0.40
2023-05-14T02:22:19.754Z,0.57
2023-05-14T02:23:30.996Z,0.50
2023-05-14T02:24:40.114Z,0.40
2023-05-14T02:25:42.092Z,0.40
2023-05-14T02:26:43.966Z,0.47
2023-05-14T02:27:46.321Z,0.60
2023-05-14T02:28:48.421Z,0.40
2023-05-14T02:29:50.365Z,0.40
2023-05-14T02:30:52.288Z,0.50
2023-05-14T02:31:54.547Z,0.57
2023-05-14T02:32:56.542Z,0.20
2023-05-14T02:33:58.642Z,0.43
2023-05-14T02:35:00.697Z,0.30
2023-05-14T02:36:06.073Z,0.40
2023-05-14T02:37:08.002Z,0.47
2023-05-14T02:38:09.923Z,0.50
2023-05-14T02:39:11.974Z,0.50
2023-05-14T02:40:14.374Z,0.50
2023-05-14T02:41:16.267Z,0.52
2023-05-14T02:42:18.241Z,0.60
2023-05-14T02:43:20.242Z,0.40
2023-05-14T02:44:22.512Z,0.40
2023-05-14T02:45:24.655Z,0.47
2023-05-14T02:46:26.954Z,0.50
2023-05-14T02:47:29.048Z,0.30
2023-05-14T02:48:31.716Z,0.38
2023-05-14T02:49:33.572Z,0.52
2023-05-14T02:50:35.532Z,0.30
2023-05-14T02:51:37.536Z,0.63
2023-05-14T02:52:39.960Z,0.35
2023-05-14T02:53:41.947Z,0.45
2023-05-14T02:54:43.939Z,0.40
2023-05-14T02:55:45.857Z,0.40
2023-05-14T02:56:48.491Z,0.60
2023-05-14T02:57:50.420Z,0.50
2023-05-14T02:58:52.367Z,0.30
2023-05-14T02:59:54.573Z,0.50
2023-05-14T03:00:57.386Z,0.38
2023-05-14T03:01:59.917Z,0.40
2023-05-14T03:03:02.260Z,1.00
2023-05-14T03:04:04.923Z,0.40
2023-05-14T03:05:07.497Z,0.60
2023-05-14T03:06:09.416Z,0.30
2023-05-14T03:07:11.361Z,0.45
2023-05-14T03:08:13.402Z,0.40
2023-05-14T03:09:15.645Z,0.30
2023-05-14T03:10:17.631Z,0.40
2023-05-14T03:11:19.554Z,0.40
2023-05-14T03:12:21.994Z,0.30
2023-05-14T03:13:24.238Z,0.20
2023-05-14T03:14:26.180Z,0.30
2023-05-14T03:15:28.184Z,0.30
2023-05-14T03:16:30.152Z,0.50
2023-05-14T03:17:32.478Z,0.40
2023-05-14T03:18:36.371Z,0.50
2023-05-14T03:19:38.420Z,0.50
2023-05-14T03:20:40.461Z,0.30
2023-05-14T03:21:42.856Z,0.30
2023-05-14T03:22:44.801Z,0.50
2023-05-14T03:23:46.737Z,0.20
2023-05-14T03:24:49.252Z,0.40
2023-05-14T03:25:51.659Z,0.30
2023-05-14T03:26:53.666Z,0.40
2023-05-14T03:27:55.661Z,0.30
2023-05-14T03:28:57.564Z,0.20
2023-05-14T03:29:59.870Z,0.35
2023-05-14T03:31:01.929Z,0.30
2023-05-14T03:32:04.147Z,0.30
2023-05-14T03:33:06.254Z,0.30
2023-05-14T03:34:08.494Z,0.35
2023-05-14T03:35:10.560Z,0.20
2023-05-14T03:36:12.427Z,0.40
2023-05-14T03:37:14.336Z,0.20
2023-05-14T03:38:16.683Z,0.35
2023-05-14T03:39:20.057Z,0.60
2023-05-14T03:40:22.086Z,0.20
2023-05-14T03:41:24.128Z,0.30
2023-05-14T03:42:26.421Z,0.38
2023-05-14T03:43:28.389Z,0.20
2023-05-14T03:44:30.347Z,0.70
2023-05-14T03:45:33.448Z,0.20
2023-05-14T03:46:36.040Z,0.50
2023-05-14T03:47:38.135Z,0.30
2023-05-14T03:48:40.274Z,0.40
2023-05-14T03:49:42.184Z,0.20
2023-05-14T03:50:44.594Z,0.30
2023-05-14T03:51:46.500Z,0.35
2023-05-14T03:52:48.466Z,0.30
2023-05-14T03:53:50.330Z,0.40
2023-05-14T03:54:52.603Z,0.40
2023-05-14T03:55:54.530Z,0.20
2023-05-14T03:56:56.520Z,0.40
2023-05-14T03:57:58.443Z,0.25
2023-05-14T03:59:00.772Z,0.50
2023-05-14T04:00:03.896Z,0.25
2023-05-14T04:01:05.863Z,0.40
2023-05-14T04:02:08.094Z,0.30
2023-05-14T04:03:10.626Z,0.70
2023-05-14T04:04:12.622Z,0.32
2023-05-14T04:05:14.649Z,0.30
2023-05-14T04:06:16.562Z,0.43
2023-05-14T04:07:18.831Z,0.10
2023-05-14T04:08:20.742Z,0.40
2023-05-14T04:09:23.582Z,0.32
2023-05-14T04:10:25.599Z,0.32
2023-05-14T04:11:27.907Z,0.30
2023-05-14T04:12:29.837Z,0.40
2023-05-14T04:13:31.760Z,0.50
2023-05-14T04:14:33.673Z,0.20
2023-05-14T04:15:36.229Z,0.40
2023-05-14T04:16:38.158Z,1.05
2023-05-14T04:17:40.297Z,0.30
2023-05-14T04:18:42.287Z,0.40
2023-05-14T04:19:44.601Z,0.50
2023-05-14T04:20:46.547Z,0.68
2023-05-14T04:21:48.432Z,0.60
2023-05-14T04:22:50.430Z,0.50
2023-05-14T04:23:52.717Z,0.60
2023-05-14T04:24:54.661Z,0.55
2023-05-14T04:25:56.640Z,0.70
2023-05-14T04:26:58.625Z,0.70
2023-05-14T04:28:01.015Z,0.70
2023-05-14T04:29:03.558Z,0.60
2023-05-14T04:30:06.756Z,0.57
2023-05-14T04:31:08.796Z,0.90
2023-05-14T04:32:12.415Z,0.70
2023-05-14T04:33:14.242Z,0.60
2023-05-14T04:34:16.294Z,0.70
2023-05-14T04:35:18.383Z,0.80
2023-05-14T04:36:20.654Z,0.60
2023-05-14T04:37:22.548Z,0.60
2023-05-14T04:38:24.497Z,1.00
2023-05-14T04:39:26.336Z,0.90
2023-05-14T04:40:28.544Z,0.60
2023-05-14T04:41:30.513Z,0.60
2023-05-14T04:42:32.428Z,0.88
2023-05-14T04:43:34.423Z,0.70
2023-05-14T04:44:37.860Z,0.77
2023-05-14T04:45:41.194Z,0.65
2023-05-14T04:46:43.179Z,0.77
2023-05-14T04:47:46.975Z,0.80
2023-05-14T04:48:49.515Z,0.90
2023-05-14T04:49:51.520Z,0.80
2023-05-14T04:50:53.497Z,0.80
2023-05-14T04:51:55.444Z,1.30
2023-05-14T04:52:57.784Z,0.65
2023-05-14T04:53:59.698Z,1.00
2023-05-14T04:55:02.020Z,0.88
2023-05-14T04:56:04.000Z,1.00
2023-05-14T04:57:07.259Z,0.70
2023-05-14T04:59:11.125Z,1.33
2023-05-14T05:00:13.489Z,0.98
2023-05-14T05:01:16.071Z,0.80
2023-05-14T05:02:18.186Z,0.63
2023-05-14T05:03:20.287Z,0.98
2023-05-14T05:04:24.149Z,1.05
2023-05-14T05:05:26.387Z,0.80
2023-05-14T05:06:28.404Z,1.05
2023-05-14T05:07:30.325Z,1.00
2023-05-14T05:08:32.192Z,0.93
2023-05-14T05:09:34.402Z,0.80
2023-05-14T05:10:36.569Z,1.25
2023-05-14T05:11:39.122Z,0.95
2023-05-14T05:12:41.702Z,1.20
2023-05-14T05:14:45.872Z,0.90
2023-05-14T05:15:47.806Z,1.05
2023-05-14T05:16:50.950Z,1.02
2023-05-14T05:17:53.308Z,1.10
2023-05-14T05:18:55.452Z,0.90
2023-05-14T05:19:57.409Z,0.88
2023-05-14T05:20:59.315Z,0.80
2023-05-14T05:22:02.237Z,1.00
2023-05-14T05:23:04.148Z,0.70
2023-05-14T05:24:06.379Z,0.90
2023-05-14T05:25:09.336Z,0.55
2023-05-14T05:26:11.826Z,1.05
2023-05-14T05:27:14.505Z,1.08
2023-05-14T05:28:16.728Z,0.82
2023-05-14T05:29:18.711Z,0.60
2023-05-14T05:30:20.938Z,0.60
2023-05-14T05:31:22.972Z,0.63
2023-05-14T05:32:25.421Z,0.60
2023-05-14T05:33:27.438Z,0.70
2023-05-14T05:34:29.726Z,0.50
2023-05-14T05:35:31.703Z,0.60
2023-05-14T05:36:34.022Z,0.52
2023-05-14T05:37:35.909Z,0.47
2023-05-14T05:38:38.250Z,0.65
2023-05-14T05:39:40.331Z,0.50
2023-05-14T05:40:42.161Z,0.98
2023-05-14T05:41:44.583Z,0.40
2023-05-14T05:42:46.842Z,0.60
2023-05-14T05:43:48.824Z,0.90
2023-05-14T05:44:50.683Z,0.50
2023-05-14T05:45:52.617Z,0.43
2023-05-14T05:46:57.495Z,0.65
2023-05-14T05:47:59.656Z,0.70
2023-05-14T05:49:01.642Z,0.57
2023-05-14T05:50:03.711Z,0.60
2023-05-14T05:51:06.124Z,0.60
2023-05-14T05:52:07.998Z,1.30
2023-05-14T05:53:10.292Z,0.45
2023-05-14T05:54:12.198Z,0.65
2023-05-14T05:55:14.446Z,0.50
2023-05-14T05:56:16.301Z,0.70
2023-05-14T05:57:18.257Z,0.57
2023-05-14T05:58:20.289Z,0.45
2023-05-14T05:59:22.595Z,0.50
2023-05-14T06:00:25.041Z,0.60
2023-05-14T06:01:27.443Z,0.40
2023-05-14T06:02:29.445Z,0.70
2023-05-14T06:03:31.924Z,0.57
2023-05-14T06:04:33.870Z,0.47
2023-05-14T06:05:36.071Z,0.47
2023-05-14T06:06:38.036Z,0.50
2023-05-14T06:07:40.450Z,0.50
2023-05-14T06:08:42.392Z,0.38
2023-05-14T06:09:44.340Z,0.40
2023-05-14T06:10:47.684Z,0.60
2023-05-14T06:11:50.161Z,0.60
2023-05-14T06:12:52.073Z,0.50
2023-05-14T06:13:54.314Z,0.60
2023-05-14T06:14:57.992Z,0.50
2023-05-14T06:16:00.370Z,0.50
2023-05-14T06:17:02.554Z,0.40
2023-05-14T06:18:04.680Z,0.70
2023-05-14T06:19:06.825Z,0.40
2023-05-14T06:20:10.013Z,0.50
2023-05-14T06:21:11.934Z,0.50
2023-05-14T06:22:15.057Z,0.50
2023-05-14T06:23:16.969Z,0.65
2023-05-14T06:24:20.332Z,0.70
2023-05-14T06:25:22.299Z,0.75
2023-05-14T06:26:24.286Z,0.60
2023-05-14T06:27:26.264Z,0.52
2023-05-14T06:28:28.697Z,0.70
2023-05-14T06:29:30.528Z,0.40
2023-05-14T06:30:32.429Z,0.73
2023-05-14T06:31:34.306Z,1.00
2023-05-14T06:32:36.806Z,0.63
2023-05-14T06:33:39.356Z,0.60
2023-05-14T06:34:44.077Z,0.77
2023-05-14T06:35:46.270Z,0.60
2023-05-14T06:36:48.533Z,0.80
2023-05-14T06:37:50.506Z,0.43
2023-05-14T06:38:52.485Z,0.40
2023-05-14T06:39:55.274Z,0.68
2023-05-14T06:40:59.361Z,0.60
2023-05-14T06:42:01.450Z,0.60
2023-05-14T06:43:03.365Z,0.68
2023-05-14T06:44:05.339Z,0.60
2023-05-14T06:45:08.056Z,0.75
2023-05-14T06:46:09.972Z,0.70
2023-05-14T06:47:11.867Z,0.50
2023-05-14T06:48:13.869Z,0.50
2023-05-14T06:49:16.343Z,0.50
2023-05-14T06:50:18.507Z,0.50
2023-05-14T06:51:20.500Z,1.05
2023-05-14T06:52:22.452Z,0.52
2023-05-14T06:53:24.717Z,0.50
2023-05-14T06:54:26.666Z,0.40
2023-05-14T06:55:28.602Z,0.60
2023-05-14T06:56:30.627Z,0.70
2023-05-14T06:57:34.320Z,0.50
2023-05-14T06:58:36.282Z,0.88
2023-05-14T06:59:38.288Z,0.40
2023-05-14T07:00:40.653Z,0.60
2023-05-14T07:01:43.072Z,0.60
2023-05-14T07:02:45.091Z,0.52
2023-05-14T07:03:47.098Z,0.70
2023-05-14T07:04:49.252Z,0.50
2023-05-14T07:05:52.070Z,0.80
2023-05-14T07:06:53.971Z,0.60
2023-05-14T07:07:55.976Z,0.55
2023-05-14T07:08:58.164Z,0.73
2023-05-14T07:10:00.447Z,0.70
2023-05-14T07:11:02.432Z,0.80
2023-05-14T07:12:04.780Z,0.90
2023-05-14T07:13:06.781Z,0.65
2023-05-14T07:14:09.084Z,1.15
2023-05-14T07:15:12.419Z,0.40
2023-05-14T07:16:14.382Z,0.65
2023-05-14T07:17:16.403Z,0.70
2023-05-14T07:18:18.808Z,0.65
2023-05-14T07:19:20.660Z,0.70
2023-05-14T07:20:24.479Z,0.60
2023-05-14T07:21:26.547Z,0.50
2023-05-14T07:22:28.793Z,0.70
2023-05-14T07:23:30.907Z,0.50
2023-05-14T07:24:32.815Z,0.63
2023-05-14T07:25:34.864Z,0.60
2023-05-14T07:26:37.170Z,0.60
2023-05-14T07:27:39.121Z,0.80
2023-05-14T07:28:41.087Z,0.63
2023-05-14T07:29:43.684Z,0.75
2023-05-14T07:30:46.007Z,0.50
2023-05-14T07:31:48.046Z,0.57
2023-05-14T07:32:50.242Z,0.60
2023-05-14T07:33:52.292Z,0.50
2023-05-14T07:34:54.550Z,0.60
2023-05-14T07:35:56.582Z,0.70
2023-05-14T07:36:58.591Z,0.60
2023-05-14T07:38:00.680Z,0.68
2023-05-14T07:39:03.052Z,0.55
2023-05-14T07:40:05.477Z,0.70
2023-05-14T07:41:08.005Z,0.60
2023-05-14T07:42:09.945Z,1.00
2023-05-14T07:43:12.294Z,0.50
2023-05-14T07:44:14.757Z,0.50
2023-05-14T07:45:16.677Z,1.00
2023-05-14T07:46:18.555Z,0.40
2023-05-14T07:47:20.934Z,0.55
2023-05-14T07:48:23.090Z,0.55
2023-05-14T07:49:25.234Z,1.00
2023-05-14T07:50:27.217Z,0.60
2023-05-14T07:51:29.630Z,0.57
2023-05-14T07:52:31.680Z,0.50
2023-05-14T07:53:33.597Z,0.55
2023-05-14T07:54:35.961Z,0.60
2023-05-14T07:55:38.304Z,0.57
2023-05-14T07:56:40.269Z,0.80
2023-05-14T07:57:42.288Z,0.60
2023-05-14T07:58:44.210Z,0.60
2023-05-14T07:59:47.622Z,0.57
2023-05-14T08:00:49.761Z,0.63
2023-05-14T08:01:51.676Z,0.52
2023-05-14T08:02:55.382Z,0.90
2023-05-14T08:03:57.949Z,0.75
2023-05-14T08:04:59.990Z,0.60
2023-05-14T08:06:01.935Z,0.57
2023-05-14T08:07:04.244Z,0.75
2023-05-14T08:08:06.808Z,0.70
2023-05-14T08:09:08.961Z,0.65
2023-05-14T08:10:11.384Z,0.60
2023-05-14T08:11:13.305Z,0.55
2023-05-14T08:12:16.234Z,0.60
2023-05-14T08:13:18.092Z,0.90
2023-05-14T08:14:21.577Z,0.60
2023-05-14T08:15:25.744Z,0.73
2023-05-14T08:16:29.696Z,0.80
2023-05-14T08:17:31.660Z,0.80
2023-05-14T08:18:33.697Z,0.43
2023-05-14T08:19:35.768Z,0.70
2023-05-14T08:20:38.232Z,0.80
2023-05-14T08:21:40.218Z,0.43
2023-05-14T08:22:42.157Z,0.70
2023-05-14T08:23:44.182Z,0.60
2023-05-14T08:24:46.585Z,0.60
2023-05-14T08:25:48.441Z,0.90
2023-05-14T08:26:50.383Z,1.00
2023-05-14T08:27:53.891Z,0.70
2023-05-14T08:28:56.238Z,0.68
2023-05-14T08:29:58.097Z,0.80
2023-05-14T08:31:00.100Z,0.60
2023-05-14T08:32:08.725Z,0.88
2023-05-14T08:33:18.542Z,0.70
2023-05-14T08:34:20.850Z,1.00
2023-05-14T08:35:22.858Z,1.60
2023-05-14T08:36:25.042Z,2.10
2023-05-14T08:37:27.431Z,1.20
2023-05-14T08:38:29.313Z,1.58
2023-05-14T08:39:31.226Z,1.65
2023-05-14T08:40:33.215Z,1.92
2023-05-14T08:41:36.561Z,2.20
2023-05-14T08:42:41.016Z,3.65
2023-05-14T08:44:06.982Z,2.90
2023-05-14T08:45:22.031Z,2.28
2023-05-14T08:46:25.326Z,1.58
2023-05-14T08:47:30.522Z,1.63
2023-05-14T08:48:34.657Z,1.15
2023-05-14T08:49:42.291Z,0.90
2023-05-14T08:50:44.692Z,1.00
2023-05-14T08:51:49.537Z,0.88
2023-05-14T08:52:52.184Z,1.17
2023-05-14T08:53:54.148Z,1.05
2023-05-14T08:54:56.780Z,0.80
2023-05-14T08:56:01.440Z,0.98
2023-05-14T08:57:04.611Z,0.85
2023-05-14T08:58:06.568Z,0.90
2023-05-14T08:59:08.899Z,0.77
2023-05-14T09:00:14.422Z,0.80
2023-05-14T09:01:16.793Z,0.75
2023-05-14T09:02:23.205Z,0.98
2023-05-14T09:03:25.871Z,1.00
2023-05-14T09:04:28.200Z,1.45
2023-05-14T09:05:30.271Z,1.08
2023-05-14T09:06:33.179Z,1.15
2023-05-14T09:07:35.925Z,1.40
2023-05-14T09:08:38.995Z,1.42
2023-05-14T09:09:41.626Z,1.52
2023-05-14T09:10:43.637Z,1.70
2023-05-14T09:11:47.133Z,1.10
2023-05-14T09:12:49.128Z,1.25
2023-05-14T09:13:51.003Z,0.95
2023-05-14T09:14:52.856Z,1.27
2023-05-14T09:15:55.589Z,1.02
2023-05-14T09:16:57.574Z,1.05
2023-05-14T09:17:59.674Z,1.70
2023-05-14T09:19:02.153Z,1.00
2023-05-14T09:20:05.005Z,1.33
2023-05-14T09:21:08.450Z,1.00
2023-05-14T09:22:13.825Z,1.00
2023-05-14T09:23:15.825Z,1.20
2023-05-14T09:24:22.837Z,1.25
2023-05-14T09:25:27.831Z,0.98
2023-05-14T09:26:33.202Z,1.20
2023-05-14T09:27:36.543Z,1.40
2023-05-14T09:28:44.894Z,1.00
2023-05-14T09:29:47.727Z,1.00
2023-05-14T09:31:55.904Z,0.90
2023-05-14T09:32:58.256Z,0.85
2023-05-14T09:34:00.895Z,1.00
2023-05-14T09:35:15.897Z,0.98
2023-05-14T09:36:18.368Z,1.30
2023-05-14T09:38:28.161Z,0.98
2023-05-14T09:39:31.319Z,1.00
2023-05-14T09:40:33.305Z,1.27
2023-05-14T09:41:35.647Z,0.93
2023-05-14T09:42:38.060Z,1.20
2023-05-14T09:43:40.030Z,1.00
2023-05-14T09:44:42.159Z,1.08
2023-05-14T09:45:44.567Z,1.02
2023-05-14T09:46:47.113Z,1.15
2023-05-14T09:47:49.854Z,1.10
2023-05-14T09:49:54.091Z,1.20
2023-05-14T09:50:56.107Z,0.93
2023-05-14T09:51:58.172Z,1.23
2023-05-14T09:53:00.423Z,1.00
2023-05-14T09:54:05.098Z,1.30
2023-05-14T09:55:08.142Z,1.20
2023-05-14T09:56:10.389Z,1.23
2023-05-14T09:57:12.310Z,1.17
2023-05-14T09:58:17.439Z,1.30
2023-05-14T09:59:19.388Z,1.20
2023-05-14T10:00:21.604Z,1.00
2023-05-14T10:01:24.856Z,1.30
2023-05-14T10:02:37.006Z,1.20
2023-05-14T10:03:39.506Z,1.20
2023-05-14T10:04:41.916Z,1.40
2023-05-14T10:05:44.536Z,1.73
2023-05-14T10:06:49.959Z,1.83
2023-05-14T10:07:54.752Z,1.58
2023-05-14T10:09:01.540Z,1.65
2023-05-14T10:10:06.337Z,1.42
2023-05-14T10:11:22.609Z,1.63
2023-05-14T10:12:28.935Z,1.60
2023-05-14T10:13:36.770Z,1.73
2023-05-14T10:14:47.452Z,1.80
2023-05-14T10:16:01.695Z,2.08
2023-05-14T10:17:06.175Z,1.50
2023-05-14T10:18:12.605Z,1.70
2023-05-14T10:19:17.017Z,1.80
2023-05-14T10:20:20.528Z,1.90
2023-05-14T10:21:23.377Z,1.70
2023-05-14T10:23:30.457Z,1.60
2023-05-14T10:24:33.753Z,1.80
2023-05-14T10:25:37.101Z,2.10
2023-05-14T10:26:41.104Z,1.67
2023-05-14T10:27:43.630Z,1.80
2023-05-14T10:29:55.544Z,1.67
2023-05-14T10:31:00.598Z,2.20
2023-05-14T10:32:07.491Z,1.98
2023-05-14T10:33:13.877Z,2.42
2023-05-14T10:34:38.997Z,2.03
2023-05-14T10:35:56.320Z,1.88
2023-05-14T10:37:12.709Z,1.85
2023-05-14T10:38:15.331Z,2.20
2023-05-14T10:39:17.226Z,2.20
2023-05-14T10:40:19.586Z,2.03
2023-05-14T10:41:22.094Z,2.28
2023-05-14T10:42:27.640Z,2.28
2023-05-14T10:43:31.155Z,2.33
2023-05-14T10:44:35.877Z,2.40
2023-05-14T10:45:37.906Z,2.53
2023-05-14T10:46:40.475Z,2.58
2023-05-14T10:47:44.572Z,2.40
2023-05-14T10:48:46.638Z,1.85
2023-05-14T10:49:53.303Z,3.13
2023-05-14T10:50:57.362Z,3.10
2023-05-14T10:51:59.575Z,2.70
2023-05-14T10:53:01.514Z,1.98
2023-05-14T10:54:03.764Z,2.30
2023-05-14T10:55:13.230Z,2.00
2023-05-14T10:56:15.204Z,2.25
2023-05-14T10:57:19.515Z,2.67
2023-05-14T10:58:22.371Z,2.72
2023-05-14T10:59:28.500Z,2.80
2023-05-14T11:00:34.195Z,3.15
2023-05-14T11:01:36.304Z,2.70
2023-05-14T11:02:40.384Z,3.05
2023-05-14T11:03:45.447Z,2.20
2023-05-14T11:04:56.529Z,2.30
2023-05-14T11:06:02.885Z,2.80
2023-05-14T11:07:05.257Z,2.13
2023-05-14T11:08:09.035Z,2.50
2023-05-14T11:09:13.220Z,2.42
2023-05-14T11:10:20.008Z,3.58
2023-05-14T11:11:22.076Z,2.45
2023-05-14T11:12:24.466Z,2.65
2023-05-14T11:13:26.987Z,2.65
2023-05-14T11:14:28.936Z,2.20
2023-05-14T11:15:31.459Z,2.30
2023-05-14T11:16:34.167Z,2.53
2023-05-14T11:17:37.168Z,2.40
2023-05-14T11:18:40.982Z,2.40
2023-05-14T11:19:45.003Z,2.58
2023-05-14T11:20:47.204Z,2.65
2023-05-14T11:21:49.247Z,2.28
2023-05-14T11:22:54.614Z,2.40
2023-05-14T11:23:57.117Z,2.75
2023-05-14T11:26:01.764Z,2.40
2023-05-14T11:27:04.999Z,2.50
2023-05-14T11:28:07.588Z,2.58
2023-05-14T11:30:17.582Z,2.80
2023-05-14T11:31:19.672Z,2.65
2023-05-14T11:32:22.319Z,2.10
2023-05-14T11:33:24.656Z,2.55
2023-05-14T11:34:26.588Z,2.35
2023-05-14T11:35:28.506Z,2.75
2023-05-14T11:36:31.301Z,2.50
2023-05-14T11:37:33.608Z,2.83
2023-05-14T11:38:47.666Z,2.58
2023-05-14T11:39:54.150Z,2.28
2023-05-14T11:40:57.341Z,2.42
2023-05-14T11:42:00.046Z,2.78
2023-05-14T11:43:02.058Z,2.60
2023-05-14T11:44:04.105Z,2.47
2023-05-14T11:45:06.618Z,2.05
2023-05-14T11:47:11.750Z,2.60
2023-05-14T11:49:17.442Z,1.98
2023-05-14T11:50:19.745Z,2.13
2023-05-14T11:51:21.726Z,2.28
2023-05-14T11:52:23.786Z,2.10
2023-05-14T11:53:28.424Z,2.47
2023-05-14T11:54:32.211Z,2.63
2023-05-14T11:55:36.469Z,2.28
2023-05-14T11:56:38.421Z,2.00
2023-05-14T11:57:41.221Z,2.40
2023-05-14T11:58:48.721Z,2.42
2023-05-14T11:59:57.918Z,1.77
2023-05-14T12:01:00.377Z,1.65
2023-05-14T12:02:03.766Z,1.80
2023-05-14T12:03:06.311Z,2.13
2023-05-14T12:04:08.345Z,1.67
2023-05-14T12:05:13.231Z,1.55
2023-05-14T12:06:15.199Z,1.55
2023-05-14T12:07:17.481Z,2.20
2023-05-14T12:08:23.503Z,1.80
2023-05-14T12:09:25.676Z,1.98
2023-05-14T12:10:27.555Z,2.25
2023-05-14T12:11:33.140Z,1.90
2023-05-14T12:12:37.431Z,2.13
2023-05-14T12:13:39.827Z,2.45
2023-05-14T12:14:42.996Z,2.22
2023-05-14T12:15:47.274Z,1.90
2023-05-14T12:16:50.591Z,1.98
2023-05-14T12:17:52.660Z,1.63
2023-05-14T12:18:54.777Z,1.75
2023-05-14T12:19:57.479Z,1.63
2023-05-14T12:21:03.688Z,1.50
2023-05-14T12:22:05.812Z,1.70
2023-05-14T12:23:11.456Z,1.35
2023-05-14T12:24:16.049Z,1.25
2023-05-14T12:25:18.003Z,1.58
2023-05-14T12:26:19.938Z,1.40
2023-05-14T12:27:24.514Z,1.40
2023-05-14T12:28:28.831Z,1.33
2023-05-14T12:29:30.798Z,1.27
2023-05-14T12:30:38.158Z,1.10
2023-05-14T12:31:47.464Z,1.00
2023-05-14T12:32:52.109Z,1.73
2023-05-14T12:33:54.095Z,1.25
2023-05-14T12:34:55.986Z,0.82
2023-05-14T12:36:10.039Z,0.90
2023-05-14T12:37:22.582Z,1.10
2023-05-14T12:38:24.462Z,1.13
2023-05-14T12:39:26.509Z,0.88
2023-05-14T12:40:28.455Z,1.05
2023-05-14T12:41:31.446Z,0.90
2023-05-14T12:42:33.333Z,0.63
2023-05-14T12:43:35.312Z,1.10
2023-05-14T12:44:37.312Z,0.85
2023-05-14T12:45:39.525Z,0.70
2023-05-14T12:46:41.902Z,0.90
2023-05-14T12:47:43.896Z,1.00
2023-05-14T12:48:46.637Z,0.70
2023-05-14T12:49:48.937Z,0.73
2023-05-14T12:50:51.294Z,0.82
2023-05-14T12:52:07.709Z,0.80
2023-05-14T12:53:16.531Z,0.55
2023-05-14T12:54:18.790Z,0.82
2023-05-14T12:55:21.025Z,0.40
2023-05-14T12:56:27.919Z,0.40
2023-05-14T12:57:30.504Z,0.20
2023-05-14T12:58:32.855Z,0.60
2023-05-14T12:59:34.822Z,0.50
2023-05-14T13:00:36.801Z,0.20
2023-05-14T13:01:38.836Z,0.43
2023-05-14T13:02:42.293Z,0.32
2023-05-14T13:03:45.237Z,0.30
2023-05-14T13:04:47.275Z,0.45
2023-05-14T13:05:49.206Z,0.40
2023-05-14T13:06:51.507Z,0.35
2023-05-14T13:07:53.927Z,0.60
2023-05-14T13:08:56.974Z,0.30
2023-05-14T13:09:58.942Z,0.40
2023-05-14T13:11:01.234Z,0.68
2023-05-14T13:12:03.320Z,0.38
2023-05-14T13:13:05.254Z,0.25
2023-05-14T13:14:07.228Z,0.45
2023-05-14T13:15:09.995Z,0.30
2023-05-14T13:16:16.990Z,0.43
2023-05-14T13:17:19.146Z,0.28
2023-05-14T13:18:21.614Z,0.45
2023-05-14T13:20:27.742Z,0.40
2023-05-14T13:21:29.690Z,0.40
2023-05-14T13:22:31.633Z,0.38
2023-05-14T13:23:33.966Z,0.40
2023-05-14T13:24:35.973Z,0.35
2023-05-14T13:25:37.900Z,0.30
2023-05-14T13:26:39.793Z,0.40
2023-05-14T13:27:42.008Z,0.22
2023-05-14T13:28:43.975Z,0.30
2023-05-14T13:29:45.934Z,0.40
2023-05-14T13:31:07.525Z,0.35
2023-05-14T13:32:09.893Z,0.20
2023-05-14T13:33:11.838Z,0.20
2023-05-14T13:34:13.873Z,0.35
2023-05-14T13:35:16.178Z,0.20
2023-05-14T13:36:18.536Z,0.32
2023-05-14T13:37:20.778Z,0.20
2023-05-14T13:38:22.698Z,0.20
2023-05-14T13:39:27.342Z,0.30
2023-05-14T13:40:29.781Z,0.30
2023-05-14T13:41:35.189Z,0.20
2023-05-14T13:42:37.760Z,0.25
2023-05-14T13:43:39.826Z,0.13
2023-05-14T13:44:42.124Z,0.20
2023-05-14T13:45:43.986Z,0.20
2023-05-14T13:46:46.085Z,0.17
2023-05-14T13:47:49.511Z,0.50
2023-05-14T13:48:52.697Z,0.20
2023-05-14T13:49:55.394Z,0.20
2023-05-14T13:50:57.538Z,0.30
2023-05-14T13:51:59.495Z,0.30
2023-05-14T13:53:01.920Z,0.20
2023-05-14T13:54:04.025Z,0.40
2023-05-14T13:55:06.592Z,0.20
2023-05-14T13:56:09.081Z,0.30
2023-05-14T13:58:13.450Z,0.22
2023-05-14T13:59:15.582Z,0.40
2023-05-14T14:00:18.085Z,0.60
2023-05-14T14:01:20.594Z,0.40
2023-05-14T14:02:22.654Z,0.65
2023-05-14T14:03:24.637Z,0.40
2023-05-14T14:04:29.251Z,0.90
2023-05-14T14:05:32.004Z,0.77
2023-05-14T14:06:33.972Z,0.73
2023-05-14T14:07:36.072Z,0.77
2023-05-14T14:08:38.034Z,0.40
2023-05-14T14:09:40.391Z,0.60
2023-05-14T14:10:42.689Z,0.52
2023-05-14T14:11:44.692Z,0.55
2023-05-14T14:12:47.052Z,0.40
2023-05-14T14:13:49.528Z,0.47
2023-05-14T14:14:51.560Z,0.50
2023-05-14T14:15:53.624Z,0.40
2023-05-14T14:16:55.676Z,0.50
2023-05-14T14:17:58.036Z,0.47
2023-05-14T14:19:00.176Z,0.30